Time;durP1;ratioP1;P1;durP2;ratioP2;P2;SDS_P1;SDS_P2;PMS_P1;PMS_P2;Temp;Humidity;BMP_temperature;BMP_pressure;BME280_temperature;BME280_humidity;BME280_pressure;Samples;Min_cycle;Max_cycle;Signal;HPM_P1;HPM_P2
2022/07/02 00:00:53;;;;;;;5.55;1.77;;;14.70;99.90;;;;;;5074912;28;20040;-53
2022/07/02 00:03:24;;;;;;;3.55;1.70;;;14.60;99.90;;;;;;5074595;28;20398;-54
2022/07/02 00:05:58;;;;;;;6.10;2.15;;;14.70;99.90;;;;;;5074825;28;20872;-55
2022/07/02 00:08:25;;;;;;;3.17;1.90;;;14.70;99.90;;;;;;5074706;28;20078;-53
2022/07/02 00:10:52;;;;;;;5.05;2.50;;;14.60;99.90;;;;;;5074686;28;20116;-54
2022/07/02 00:13:19;;;;;;;4.82;2.05;;;14.60;99.90;;;;;;5074654;28;20412;-55
2022/07/02 00:15:45;;;;;;;3.97;2.13;;;14.50;99.90;;;;;;5074347;28;20075;-55
2022/07/02 00:18:12;;;;;;;4.03;2.38;;;14.60;99.90;;;;;;5074486;28;20093;-54
2022/07/02 00:20:38;;;;;;;4.90;1.70;;;14.60;99.90;;;;;;5074489;28;20120;-54
2022/07/02 00:23:04;;;;;;;3.70;2.10;;;14.60;99.90;;;;;;5074168;28;20094;-54
2022/07/02 00:25:52;;;;;;;6.72;2.63;;;14.60;99.90;;;;;;5074457;28;20048;-54
2022/07/02 00:28:19;;;;;;;5.93;2.38;;;14.50;99.90;;;;;;5074092;28;20529;-54
2022/07/02 00:30:47;;;;;;;5.28;2.83;;;14.40;99.90;;;;;;5074115;28;20051;-55
2022/07/02 00:33:16;;;;;;;3.92;2.03;;;14.40;99.90;;;;;;5073667;28;20064;-55
2022/07/02 00:35:43;;;;;;;4.57;2.33;;;14.40;99.90;;;;;;5073933;28;20080;-55
2022/07/02 00:38:09;;;;;;;9.88;2.65;;;14.40;99.90;;;;;;5072455;28;20438;-54
2022/07/02 00:40:36;;;;;;;4.57;2.42;;;14.30;99.90;;;;;;5072601;28;20056;-55
2022/07/02 00:43:02;;;;;;;5.57;2.50;;;14.30;99.90;;;;;;5073772;28;20250;-53
2022/07/02 00:45:28;;;;;;;4.05;2.50;;;14.20;99.90;;;;;;5073697;28;20127;-55
2022/07/02 00:47:55;;;;;;;6.97;2.78;;;14.30;99.90;;;;;;5073993;28;20090;-55
2022/07/02 00:50:22;;;;;;;7.72;2.80;;;14.20;99.90;;;;;;5071864;28;20475;-55
2022/07/02 00:52:48;;;;;;;3.65;2.40;;;14.20;99.90;;;;;;5073936;28;20387;-55
2022/07/02 00:55:14;;;;;;;10.48;3.25;;;14.10;99.90;;;;;;5072253;28;20059;-54
2022/07/02 00:57:39;;;;;;;4.97;2.65;;;14.10;99.90;;;;;;5073424;28;20394;-54
2022/07/02 01:00:07;;;;;;;5.68;2.60;;;14.10;99.90;;;;;;5073762;28;20040;-55
2022/07/02 01:02:36;;;;;;;5.18;2.50;;;14.10;99.90;;;;;;5073571;28;20402;-55
2022/07/02 01:05:02;;;;;;;3.88;3.00;;;14.10;99.90;;;;;;5073430;28;20194;-55
2022/07/02 01:07:30;;;;;;;4.55;2.58;;;14.00;99.90;;;;;;5072882;28;20501;-53
2022/07/02 01:10:17;;;;;;;11.60;4.13;;;14.00;99.90;;;;;;5073651;28;20044;-54
2022/07/02 01:12:48;;;;;;;8.60;2.67;;;14.00;99.90;;;;;;5073122;28;20115;-53
2022/07/02 01:15:15;;;;;;;3.95;2.92;;;14.00;99.90;;;;;;5073057;28;20478;-56
2022/07/02 01:17:42;;;;;;;3.85;2.50;;;13.90;99.90;;;;;;5071741;28;20049;-54
2022/07/02 01:20:09;;;;;;;3.28;2.80;;;13.90;99.90;;;;;;5071916;28;20036;-54
2022/07/02 01:22:36;;;;;;;6.80;3.20;;;13.90;99.90;;;;;;5073182;28;20112;-54
2022/07/02 01:25:03;;;;;;;8.55;3.42;;;13.90;99.90;;;;;;5072963;28;20040;-54
2022/07/02 01:27:29;;;;;;;5.82;3.00;;;13.80;99.90;;;;;;5072786;28;20040;-54
2022/07/02 01:29:55;;;;;;;6.22;3.22;;;13.80;99.90;;;;;;5073149;28;20036;-54
2022/07/02 01:32:21;;;;;;;6.00;3.00;;;13.80;99.90;;;;;;5072851;28;20056;-55
2022/07/02 01:34:50;;;;;;;5.50;3.03;;;13.80;99.90;;;;;;5072858;28;20040;-54
2022/07/02 01:37:19;;;;;;;5.60;2.70;;;13.70;99.90;;;;;;5072703;28;20052;-54
2022/07/02 01:39:45;;;;;;;6.13;3.43;;;13.70;99.90;;;;;;5072581;28;20047;-53
2022/07/02 01:42:12;;;;;;;5.00;2.80;;;13.70;99.90;;;;;;5072785;28;20051;-53
2022/07/02 01:44:38;;;;;;;6.75;3.35;;;13.70;99.90;;;;;;5072623;28;20040;-54
2022/07/02 01:47:06;;;;;;;5.38;2.90;;;13.70;99.90;;;;;;5071554;28;20053;-53
2022/07/02 01:49:32;;;;;;;7.18;2.83;;;13.70;99.90;;;;;;5072333;28;20037;-54
2022/07/02 01:51:58;;;;;;;5.65;2.90;;;13.60;99.90;;;;;;5072569;28;20039;-54
2022/07/02 01:54:24;;;;;;;5.10;3.08;;;13.60;99.90;;;;;;5072350;28;20045;-57
2022/07/02 01:56:50;;;;;;;7.85;3.03;;;13.60;99.90;;;;;;5072508;28;20064;-58
2022/07/02 01:59:16;;;;;;;7.50;3.25;;;13.60;99.90;;;;;;5072342;28;20037;-55
2022/07/02 02:01:43;;;;;;;10.65;3.55;;;13.60;99.90;;;;;;5072670;28;20036;-54
2022/07/02 02:04:09;;;;;;;8.32;3.88;;;13.60;99.90;;;;;;5072597;28;20102;-54
2022/07/02 02:06:35;;;;;;;4.78;2.90;;;13.60;99.90;;;;;;5072439;28;20428;-55
2022/07/02 02:09:01;;;;;;;5.78;3.15;;;13.50;99.90;;;;;;5072502;28;20037;-54
2022/07/02 02:11:26;;;;;;;5.60;3.10;;;13.50;99.90;;;;;;5072396;28;20036;-54
2022/07/02 02:13:52;;;;;;;6.47;3.17;;;13.50;99.90;;;;;;5072222;28;20394;-54
2022/07/02 02:16:18;;;;;;;5.05;3.10;;;13.50;99.90;;;;;;5072283;28;20040;-54
2022/07/02 02:18:44;;;;;;;8.10;3.28;;;13.40;99.90;;;;;;5071405;28;20040;-53
2022/07/02 02:21:10;;;;;;;8.40;3.60;;;13.40;99.90;;;;;;5071947;28;20115;-54
2022/07/02 02:23:36;;;;;;;8.30;3.45;;;13.40;99.90;;;;;;5071980;28;20445;-54
2022/07/02 02:26:02;;;;;;;6.68;4.03;;;13.30;99.90;;;;;;5071922;28;20525;-52
2022/07/02 02:28:27;;;;;;;6.00;3.20;;;13.40;99.90;;;;;;5072108;28;20123;-54
2022/07/02 02:30:53;;;;;;;8.65;3.50;;;13.30;99.90;;;;;;5072087;28;20123;-53
2022/07/02 02:33:19;;;;;;;5.25;3.10;;;13.30;99.90;;;;;;5071773;28;20084;-54
2022/07/02 02:35:44;;;;;;;10.30;3.45;;;13.30;99.90;;;;;;5071821;28;20182;-54
2022/07/02 02:38:10;;;;;;;8.27;3.53;;;13.30;99.90;;;;;;5071755;28;20032;-53
2022/07/02 02:40:36;;;;;;;8.80;3.42;;;13.30;99.90;;;;;;5071956;28;20032;-54
2022/07/02 02:43:01;;;;;;;12.13;3.75;;;13.20;99.90;;;;;;5071963;28;20479;-53
2022/07/02 02:45:27;;;;;;;10.85;3.33;;;13.20;99.90;;;;;;5071822;28;20044;-54
2022/07/02 02:47:53;;;;;;;11.65;3.60;;;13.20;99.90;;;;;;5072228;28;20044;-54
2022/07/02 02:50:18;;;;;;;4.20;3.22;;;13.10;99.90;;;;;;5071855;28;20040;-54
2022/07/02 02:52:44;;;;;;;7.60;3.45;;;13.20;99.90;;;;;;5071665;28;20032;-53
2022/07/02 02:55:10;;;;;;;11.80;4.20;;;13.20;99.90;;;;;;5071636;28;20070;-54
2022/07/02 02:57:35;;;;;;;6.78;3.30;;;13.20;99.90;;;;;;5071826;28;20040;-52
2022/07/02 03:00:01;;;;;;;7.72;3.30;;;13.10;99.90;;;;;;5071915;28;20064;-54
2022/07/02 03:02:27;;;;;;;4.55;3.10;;;13.20;99.90;;;;;;5070634;28;20458;-53
2022/07/02 03:04:52;;;;;;;11.35;3.38;;;13.20;99.90;;;;;;5071758;28;20498;-55
2022/07/02 03:07:18;;;;;;;6.03;3.25;;;13.10;99.90;;;;;;5071476;28;20106;-54
2022/07/02 03:09:43;;;;;;;6.00;2.97;;;13.10;99.90;;;;;;5072008;28;20051;-54
2022/07/02 03:12:09;;;;;;;6.25;3.53;;;13.10;99.90;;;;;;5071595;28;20115;-54
2022/07/02 03:14:35;;;;;;;6.20;3.60;;;13.10;99.90;;;;;;5071541;28;20098;-54
2022/07/02 03:17:01;;;;;;;8.05;3.65;;;13.20;99.90;;;;;;5071819;28;20036;-53
2022/07/02 03:19:27;;;;;;;6.55;3.65;;;13.10;99.90;;;;;;5071688;28;20041;-55
2022/07/02 03:21:53;;;;;;;11.10;3.60;;;13.10;99.90;;;;;;5071475;28;20033;-54
2022/07/02 03:24:19;;;;;;;8.70;4.20;;;13.10;99.90;;;;;;5071718;28;20135;-54
2022/07/02 03:26:44;;;;;;;5.55;3.53;;;13.10;99.90;;;;;;5071771;28;20046;-55
2022/07/02 03:29:10;;;;;;;9.15;4.03;;;13.10;99.90;;;;;;5072529;28;20040;-54
2022/07/02 03:31:36;;;;;;;8.75;3.70;;;13.10;99.90;;;;;;5075201;28;20506;-54
2022/07/02 03:34:01;;;;;;;7.65;3.78;;;13.00;99.90;;;;;;5074890;28;20054;-54
2022/07/02 03:36:27;;;;;;;8.95;3.72;;;13.10;99.90;;;;;;5075205;28;20044;-56
2022/07/02 03:38:52;;;;;;;7.05;3.58;;;13.10;99.90;;;;;;5075108;28;20037;-54
2022/07/02 03:41:18;;;;;;;8.32;3.63;;;13.10;99.90;;;;;;5075146;28;20037;-54
2022/07/02 03:43:44;;;;;;;7.00;3.90;;;13.10;99.90;;;;;;5074984;28;20391;-54
2022/07/02 03:46:09;;;;;;;7.65;4.25;;;13.10;99.90;;;;;;5074998;28;20450;-54
2022/07/02 03:48:35;;;;;;;6.30;3.72;;;13.00;99.90;;;;;;5074899;28;20040;-54
2022/07/02 03:51:00;;;;;;;6.15;3.40;;;13.10;99.90;;;;;;5074915;28;20041;-54
2022/07/02 03:53:26;;;;;;;5.97;3.65;;;13.10;99.90;;;;;;5074914;28;20364;-55
2022/07/02 03:55:52;;;;;;;8.68;4.18;;;13.10;99.90;;;;;;5073523;28;20044;-55
2022/07/02 03:58:17;;;;;;;7.95;3.83;;;13.10;99.90;;;;;;5074741;28;20037;-55
2022/07/02 04:00:43;;;;;;;9.60;3.70;;;13.10;99.90;;;;;;5074704;28;20111;-54
2022/07/02 04:03:09;;;;;;;11.77;3.95;;;13.10;99.90;;;;;;5074768;28;20036;-55
2022/07/02 04:05:34;;;;;;;6.65;3.70;;;13.20;99.90;;;;;;5074543;28;20157;-54
2022/07/02 04:08:00;;;;;;;6.40;4.15;;;13.20;99.90;;;;;;5074629;28;20079;-55
2022/07/02 04:10:25;;;;;;;6.53;4.10;;;13.20;99.90;;;;;;5074548;28;20044;-53
2022/07/02 04:12:51;;;;;;;5.30;3.90;;;13.20;99.90;;;;;;5074840;28;20391;-55
2022/07/02 04:15:17;;;;;;;8.90;4.72;;;13.20;99.90;;;;;;5074404;28;20487;-55
2022/07/02 04:17:42;;;;;;;6.57;4.32;;;13.20;99.90;;;;;;5074362;28;20482;-53
2022/07/02 04:20:08;;;;;;;11.77;4.90;;;13.20;99.90;;;;;;5073147;28;20048;-55
2022/07/02 04:22:34;;;;;;;8.48;4.28;;;13.30;99.90;;;;;;5074396;28;20043;-55
2022/07/02 04:25:00;;;;;;;8.60;4.35;;;13.20;99.90;;;;;;5074552;28;20116;-55
2022/07/02 04:27:25;;;;;;;7.40;4.30;;;13.30;99.90;;;;;;5072845;28;20047;-54
2022/07/02 04:29:51;;;;;;;6.90;3.75;;;13.40;99.90;;;;;;5074321;28;20036;-54
2022/07/02 04:32:17;;;;;;;7.60;4.53;;;13.40;99.90;;;;;;5073916;28;20060;-54
2022/07/02 04:34:43;;;;;;;6.95;4.05;;;13.40;99.90;;;;;;5074339;28;20041;-54
2022/07/02 04:37:08;;;;;;;6.90;4.78;;;13.50;99.90;;;;;;5074190;28;20063;-54
2022/07/02 04:39:34;;;;;;;7.25;3.92;;;13.60;99.90;;;;;;5074315;28;20040;-54
2022/07/02 04:42:00;;;;;;;7.40;4.50;;;13.70;99.90;;;;;;5073369;28;20033;-54
2022/07/02 04:44:26;;;;;;;11.68;4.82;;;13.70;99.90;;;;;;5074222;28;20147;-53
2022/07/02 04:46:53;;;;;;;6.45;4.38;;;13.70;99.90;;;;;;5074012;28;20042;-54
2022/07/02 04:49:19;;;;;;;9.20;4.65;;;13.80;99.90;;;;;;5073834;28;20085;-54
2022/07/02 04:51:44;;;;;;;7.28;4.45;;;13.80;99.90;;;;;;5072896;28;20040;-55
2022/07/02 04:54:10;;;;;;;6.00;4.60;;;13.90;99.90;;;;;;5073516;28;20387;-54
2022/07/02 04:56:36;;;;;;;8.00;4.70;;;14.00;99.90;;;;;;5073808;28;20044;-53
2022/07/02 04:59:01;;;;;;;8.45;4.70;;;14.00;99.90;;;;;;5073623;28;20047;-54
2022/07/02 05:01:28;;;;;;;12.75;6.25;;;14.10;99.90;;;;;;5073487;28;20394;-54
2022/07/02 05:03:54;;;;;;;11.85;5.80;;;14.10;99.90;;;;;;5073582;28;20380;-53
2022/07/02 05:06:21;;;;;;;11.32;6.35;;;14.10;99.90;;;;;;5072366;28;20445;-55
2022/07/02 05:08:47;;;;;;;9.00;6.68;;;14.10;99.90;;;;;;5073554;28;20041;-54
2022/07/02 05:11:15;;;;;;;10.15;5.90;;;14.30;99.90;;;;;;5073278;28;20040;-54
2022/07/02 05:13:43;;;;;;;8.10;6.20;;;14.30;99.90;;;;;;5073372;28;20040;-55
2022/07/02 05:16:08;;;;;;;10.25;6.47;;;14.40;99.90;;;;;;5073442;28;20037;-54
2022/07/02 05:18:34;;;;;;;7.80;6.35;;;14.50;99.90;;;;;;5072977;28;20475;-55
2022/07/02 05:20:59;;;;;;;11.88;6.90;;;14.50;99.90;;;;;;5072212;28;20119;-55
2022/07/02 05:23:25;;;;;;;10.23;6.57;;;14.60;99.90;;;;;;5073327;28;20467;-54
2022/07/02 05:25:51;;;;;;;11.95;7.35;;;14.70;99.90;;;;;;5073182;28;20036;-55
2022/07/02 05:28:16;;;;;;;10.32;6.68;;;14.70;99.90;;;;;;5072980;28;20040;-55
2022/07/02 05:30:42;;;;;;;9.52;6.70;;;14.80;99.90;;;;;;5073026;28;20100;-55
2022/07/02 05:33:08;;;;;;;11.48;6.63;;;14.90;99.90;;;;;;5072599;28;20140;-57
2022/07/02 05:35:33;;;;;;;13.38;7.00;;;14.90;99.90;;;;;;5073098;28;20072;-55
2022/07/02 05:37:59;;;;;;;9.07;5.97;;;15.00;99.90;;;;;;5073128;28;20048;-54
2022/07/02 05:40:25;;;;;;;13.38;7.63;;;15.10;99.90;;;;;;5073442;28;20033;-54
2022/07/02 05:42:50;;;;;;;11.57;5.88;;;15.20;99.90;;;;;;5072660;28;20032;-53
2022/07/02 05:45:16;;;;;;;9.75;6.22;;;15.30;99.90;;;;;;5072505;28;20499;-55
2022/07/02 05:47:42;;;;;;;8.73;5.70;;;15.40;99.90;;;;;;5072406;28;20044;-55
2022/07/02 05:50:08;;;;;;;8.90;4.88;;;15.50;99.90;;;;;;5072496;28;20040;-53
2022/07/02 05:52:34;;;;;;;10.98;5.05;;;15.60;99.90;;;;;;5071871;28;20044;-56
2022/07/02 05:54:59;;;;;;;6.22;4.57;;;15.80;99.90;;;;;;5072482;28;20085;-55
2022/07/02 05:57:25;;;;;;;12.00;4.68;;;15.90;99.90;;;;;;5072651;28;20037;-55
2022/07/02 05:59:51;;;;;;;7.32;4.60;;;16.00;99.90;;;;;;5072577;28;20029;-55
2022/07/02 06:02:17;;;;;;;7.68;4.10;;;16.10;99.90;;;;;;5072666;28;20536;-55
2022/07/02 06:04:42;;;;;;;6.78;4.22;;;16.20;99.90;;;;;;5072459;28;20028;-55
2022/07/02 06:09:53;;;;;;;13.18;3.92;;;16.40;99.90;;;;;;5072434;28;20376;-55
2022/07/02 06:12:18;;;;;;;12.30;4.40;;;16.60;99.90;;;;;;5072293;28;20032;-55
2022/07/02 06:14:44;;;;;;;7.70;4.57;;;16.70;99.90;;;;;;5072330;28;20505;-55
2022/07/02 06:17:10;;;;;;;6.85;3.92;;;16.80;99.90;;;;;;5072065;28;20036;-54
2022/07/02 06:19:38;;;;;;;8.35;3.42;;;16.80;99.90;;;;;;5072199;28;20032;-54
2022/07/02 06:22:04;;;;;;;5.28;3.28;;;17.00;99.90;;;;;;5072283;28;20059;-54
2022/07/02 06:24:30;;;;;;;10.75;3.60;;;17.20;99.90;;;;;;5072379;28;20042;-54
2022/07/02 06:26:56;;;;;;;6.25;3.28;;;17.30;99.90;;;;;;5072069;28;20113;-54
2022/07/02 06:29:21;;;;;;;7.63;3.55;;;17.40;99.90;;;;;;5071932;28;20676;-54
2022/07/02 06:31:47;;;;;;;7.35;3.00;;;17.60;99.90;;;;;;5071891;28;20032;-55
2022/07/02 06:34:13;;;;;;;7.82;3.03;;;17.80;99.90;;;;;;5071818;28;20059;-54
2022/07/02 06:36:38;;;;;;;9.13;3.42;;;17.80;99.90;;;;;;5072037;28;20090;-54
2022/07/02 06:39:04;;;;;;;5.30;3.03;;;18.00;99.90;;;;;;5071918;28;20124;-54
2022/07/02 06:44:14;;;;;;;8.45;3.15;;;18.20;99.90;;;;;;5071918;28;20041;-54
2022/07/02 06:46:39;;;;;;;5.65;2.75;;;18.40;99.90;;;;;;5071940;28;20052;-55
2022/07/02 06:49:05;;;;;;;5.45;2.70;;;18.60;99.90;;;;;;5071929;28;20106;-54
2022/07/02 06:51:31;;;;;;;5.43;2.88;;;18.70;99.90;;;;;;5071868;28;20076;-54
2022/07/02 06:54:00;;;;;;;6.05;2.25;;;18.90;99.90;;;;;;5072332;28;20074;-54
2022/07/02 06:56:32;;;;;;;7.07;2.40;;;19.00;99.90;;;;;;5071757;28;20105;-53
2022/07/02 06:58:57;;;;;;;6.55;2.38;;;19.10;99.90;;;;;;5071560;28;20049;-55
2022/07/02 07:01:23;;;;;;;4.90;2.45;;;19.20;99.90;;;;;;5070742;28;20109;-53
2022/07/02 07:03:49;;;;;;;7.85;3.05;;;19.40;99.90;;;;;;5072053;28;20044;-55
2022/07/02 07:06:14;;;;;;;7.95;2.20;;;19.60;99.90;;;;;;5075811;28;20459;-55
2022/07/02 07:08:40;;;;;;;5.47;2.15;;;19.70;99.90;;;;;;5075488;28;20119;-55
2022/07/02 07:11:06;;;;;;;5.40;2.45;;;19.80;99.90;;;;;;5075964;28;20040;-56
2022/07/02 07:13:31;;;;;;;7.97;2.25;;;20.10;99.90;;;;;;5076350;28;20048;-55
2022/07/02 07:15:57;;;;;;;5.93;1.77;;;20.30;99.90;;;;;;5074900;28;20044;-56
2022/07/02 07:18:22;;;;;;;4.25;1.63;;;20.40;99.90;;;;;;5074817;28;20051;-55
2022/07/02 07:20:49;;;;;;;5.90;1.85;;;20.50;99.90;;;;;;5072263;28;20028;-55
2022/07/02 07:23:15;;;;;;;6.50;1.67;;;20.50;99.90;;;;;;5075492;28;20107;-64
2022/07/02 07:25:41;;;;;;;6.38;1.70;;;20.70;99.90;;;;;;5074835;28;20178;-65
2022/07/02 07:28:07;;;;;;;5.70;1.50;;;20.60;99.90;;;;;;5075063;28;20032;-64
2022/07/02 07:30:32;;;;;;;8.02;1.73;;;21.00;99.90;;;;;;5074363;28;20033;-64
2022/07/02 07:32:58;;;;;;;7.80;2.03;;;20.90;99.90;;;;;;5075034;28;20449;-65
2022/07/02 07:35:23;;;;;;;6.03;1.77;;;21.00;99.90;;;;;;5074906;28;20522;-65
2022/07/02 07:37:57;;;;;;;5.85;1.92;;;21.00;99.90;;;;;;5074892;28;20170;-64
2022/07/02 07:40:23;;;;;;;6.57;1.40;;;20.90;99.90;;;;;;5074901;28;20471;-63
2022/07/02 07:42:49;;;;;;;4.72;2.03;;;21.30;99.90;;;;;;5074807;28;20479;-65
2022/07/02 07:45:15;;;;;;;4.70;1.30;;;21.20;99.90;;;;;;5073610;28;20043;-65
2022/07/02 07:47:40;;;;;;;6.20;1.80;;;21.30;99.90;;;;;;5074145;28;20040;-67
2022/07/02 07:50:07;;;;;;;5.00;1.25;;;21.30;99.90;;;;;;5075052;28;20040;-65
2022/07/02 07:52:32;;;;;;;3.95;1.10;;;21.40;99.90;;;;;;5074378;28;20044;-65
2022/07/02 07:54:58;;;;;;;5.53;1.65;;;21.50;99.90;;;;;;5074167;28;20391;-65
2022/07/02 07:57:24;;;;;;;3.97;1.50;;;21.60;99.90;;;;;;5072469;28;20434;-64
2022/07/02 07:59:49;;;;;;;4.03;1.77;;;21.70;99.90;;;;;;5071019;28;20040;-64
2022/07/02 08:02:17;;;;;;;5.15;1.70;;;21.70;99.90;;;;;;5070313;28;20032;-64
2022/07/02 08:04:43;;;;;;;6.45;1.77;;;22.10;99.90;;;;;;5071673;28;20040;-64
2022/07/02 08:07:09;;;;;;;6.38;2.25;;;22.10;99.90;;;;;;5072861;28;20532;-64
2022/07/02 08:09:34;;;;;;;5.68;1.50;;;22.20;99.90;;;;;;5073313;28;20035;-64
2022/07/02 08:12:00;;;;;;;6.53;1.38;;;22.30;99.90;;;;;;5074669;28;20522;-67
2022/07/02 08:14:26;;;;;;;2.58;1.52;;;22.10;99.90;;;;;;5073905;28;20082;-67
2022/07/02 08:16:51;;;;;;;4.03;1.52;;;22.30;99.90;;;;;;5072796;28;20219;-66
2022/07/02 08:19:19;;;;;;;3.95;1.27;;;22.30;99.90;;;;;;5073969;28;20075;-66
2022/07/02 08:21:45;;;;;;;6.05;1.50;;;22.40;99.90;;;;;;5074375;28;20085;-65
2022/07/02 08:24:11;;;;;;;4.82;1.55;;;22.30;99.90;;;;;;5074200;28;20048;-64
2022/07/02 08:26:36;;;;;;;7.18;1.70;;;22.40;99.90;;;;;;5073981;28;20040;-66
2022/07/02 08:29:02;;;;;;;9.85;1.52;;;22.50;99.90;;;;;;5074201;28;20041;-65
2022/07/02 08:31:28;;;;;;;4.10;1.17;;;22.60;99.90;;;;;;5074254;28;20101;-66
2022/07/02 08:33:54;;;;;;;2.20;0.98;;;22.50;99.90;;;;;;5073283;28;20487;-66
2022/07/02 08:36:19;;;;;;;7.97;1.58;;;22.50;99.90;;;;;;5073261;28;20052;-66
2022/07/02 08:38:45;;;;;;;14.68;1.63;;;22.70;99.90;;;;;;5073823;28;20185;-65
2022/07/02 08:41:12;;;;;;;3.38;1.00;;;22.90;99.90;;;;;;5073329;28;20033;-56
2022/07/02 08:43:41;;;;;;;5.07;1.27;;;23.10;99.90;;;;;;5074205;28;20386;-56
2022/07/02 08:46:08;;;;;;;2.83;1.00;;;23.10;99.90;;;;;;5074054;28;20048;-56
2022/07/02 08:48:34;;;;;;;3.85;1.30;;;23.20;99.90;;;;;;5073949;28;20040;-55
2022/07/02 08:51:00;;;;;;;7.07;1.20;;;23.50;99.90;;;;;;5073649;28;20094;-55
2022/07/02 08:53:26;;;;;;;5.18;1.23;;;23.30;99.90;;;;;;5073929;28;20036;-57
2022/07/02 08:55:53;;;;;;;4.22;1.10;;;23.30;99.90;;;;;;5073968;28;20123;-56
2022/07/02 08:58:20;;;;;;;5.70;1.05;;;23.40;99.90;;;;;;5073854;28;20123;-56
2022/07/02 09:00:47;;;;;;;3.25;0.77;;;23.80;99.90;;;;;;5073618;28;20066;-55
2022/07/02 09:03:14;;;;;;;3.05;0.80;;;24.10;99.90;;;;;;5073725;28;20047;-56
2022/07/02 09:05:41;;;;;;;1.60;0.45;;;24.40;99.90;;;;;;5073525;28;20395;-56
2022/07/02 09:08:08;;;;;;;6.83;1.20;;;24.50;99.90;;;;;;5073823;28;20046;-60
2022/07/02 09:10:37;;;;;;;2.58;1.10;;;24.60;99.90;;;;;;5073764;28;20328;-56
2022/07/02 09:13:05;;;;;;;43.38;3.55;;;24.50;99.80;;;;;;5073148;28;20040;-55
2022/07/02 09:15:31;;;;;;;20.95;2.75;;;24.60;99.40;;;;;;5073708;28;20044;-56
2022/07/02 09:17:57;;;;;;;2.20;0.60;;;24.60;99.90;;;;;;5073220;28;20439;-55
2022/07/02 09:20:23;;;;;;;4.88;1.08;;;24.80;98.90;;;;;;5073748;28;20051;-56
2022/07/02 09:22:52;;;;;;;48.17;2.55;;;25.20;99.90;;;;;;5073537;28;20112;-56
2022/07/02 09:25:20;;;;;;;2.92;0.50;;;25.30;98.80;;;;;;5073256;28;20475;-56
2022/07/02 09:27:47;;;;;;;1.90;0.60;;;25.20;98.00;;;;;;5072898;28;20045;-57
2022/07/02 09:30:17;;;;;;;4.45;1.00;;;25.20;97.50;;;;;;5073133;28;20040;-56
2022/07/02 09:32:46;;;;;;;1.90;0.40;;;25.20;97.60;;;;;;5072994;28;20064;-56
2022/07/02 09:35:22;;;;;;;1.35;0.52;;;25.50;98.30;;;;;;5104859;28;20441;-56
2022/07/02 09:37:49;;;;;;;2.03;0.60;;;25.40;98.00;;;;;;5073074;28;20054;-56
2022/07/02 09:40:16;;;;;;;4.30;1.02;;;25.40;97.20;;;;;;5073019;28;20040;-56
2022/07/02 09:42:46;;;;;;;22.65;2.45;;;25.50;98.70;;;;;;5072783;28;20048;-55
2022/07/02 09:45:13;;;;;;;8.20;1.10;;;25.30;97.30;;;;;;5072833;28;20482;-55
2022/07/02 09:47:43;;;;;;;6.13;0.93;;;25.40;97.90;;;;;;5104730;28;20064;-56
2022/07/02 09:50:10;;;;;;;8.75;0.77;;;25.40;97.70;;;;;;5072009;28;20045;-56
2022/07/02 09:52:46;;;;;;;10.77;0.90;;;25.50;97.60;;;;;;5072262;28;20052;-56
2022/07/02 09:55:19;;;;;;;8.20;0.93;;;25.20;96.40;;;;;;5072290;28;20089;-56
2022/07/02 09:57:52;;;;;;;2.08;0.75;;;25.70;98.00;;;;;;5071869;28;20490;-57
2022/07/02 10:00:19;;;;;;;3.88;0.65;;;25.60;97.50;;;;;;5072593;28;20382;-56
2022/07/02 10:02:48;;;;;;;20.60;1.90;;;25.30;97.40;;;;;;5072217;28;20499;-57
2022/07/02 10:05:14;;;;;;;5.25;0.95;;;25.70;97.90;;;;;;5072343;28;20466;-56
2022/07/02 10:07:40;;;;;;;3.47;0.73;;;25.70;98.10;;;;;;5072346;28;20119;-55
2022/07/02 10:10:06;;;;;;;4.30;0.90;;;26.20;97.90;;;;;;5072209;28;20429;-54
2022/07/02 10:12:33;;;;;;;5.85;1.08;;;27.10;97.20;;;;;;5072050;28;20474;-55
2022/07/02 10:15:00;;;;;;;3.38;1.13;;;27.00;97.30;;;;;;5072125;28;20050;-55
2022/07/02 10:17:28;;;;;;;2.55;0.70;;;26.90;96.10;;;;;;5070791;28;20052;-56
2022/07/02 10:19:56;;;;;;;15.43;1.88;;;26.60;95.10;;;;;;5071372;28;20119;-55
2022/07/02 10:22:22;;;;;;;3.33;0.70;;;26.70;96.60;;;;;;5052018;28;20562;-53
2022/07/02 10:24:50;;;;;;;3.17;0.50;;;27.10;96.30;;;;;;5053374;28;20116;-55
2022/07/02 10:27:17;;;;;;;7.97;1.15;;;27.70;95.70;;;;;;5072017;28;20500;-54
2022/07/02 10:29:44;;;;;;;2.22;0.65;;;27.80;96.20;;;;;;5072298;28;20119;-55
2022/07/02 10:32:19;;;;;;;10.25;1.58;;;27.70;94.80;;;;;;5070810;28;20032;-55
2022/07/02 10:34:53;;;;;;;1.38;0.50;;;28.10;95.50;;;;;;5071932;28;20529;-55
2022/07/02 10:37:18;;;;;;;4.68;0.70;;;28.00;96.00;;;;;;5072257;28;20045;-55
2022/07/02 10:39:44;;;;;;;0.90;0.22;;;28.10;96.20;;;;;;5082125;28;20394;-55
2022/07/02 10:42:10;;;;;;;2.28;0.68;;;28.10;94.50;;;;;;5091103;28;20410;-54
2022/07/02 10:44:40;;;;;;;2.42;0.60;;;28.00;95.40;;;;;;5092205;28;20050;-54
2022/07/02 10:47:17;;;;;;;3.17;0.60;;;28.30;95.60;;;;;;5091919;28;20032;-56
2022/07/02 10:49:43;;;;;;;1.98;0.47;;;28.00;93.70;;;;;;5091988;28;20040;-57
2022/07/02 10:52:09;;;;;;;3.03;0.47;;;27.60;95.00;;;;;;5091844;28;20040;-55
2022/07/02 10:54:34;;;;;;;5.57;1.00;;;27.20;96.10;;;;;;5091947;28;20040;-55
2022/07/02 10:57:00;;;;;;;4.57;0.95;;;27.10;95.30;;;;;;5091959;28;20039;-55
2022/07/02 10:59:36;;;;;;;13.82;1.23;;;26.60;94.70;;;;;;5091919;28;20037;-55
2022/07/02 11:02:04;;;;;;;12.73;1.38;;;25.90;94.90;;;;;;5091850;28;20039;-55
2022/07/02 11:04:29;;;;;;;37.10;3.67;;;25.70;95.30;;;;;;5091851;28;20119;-56
2022/07/02 11:07:10;;;;;;;8.00;1.42;;;25.50;95.60;;;;;;5091658;28;20114;-56
2022/07/02 11:09:50;;;;;;;3.13;0.80;;;26.20;95.20;;;;;;5091761;28;20486;-56
2022/07/02 11:12:26;;;;;;;4.43;0.57;;;26.80;95.30;;;;;;5091948;28;20040;-56
2022/07/02 11:14:56;;;;;;;2.45;0.52;;;26.70;94.40;;;;;;5091559;28;20085;-57
2022/07/02 11:17:24;;;;;;;1.42;0.60;;;26.90;95.00;;;;;;5091547;28;20042;-55
2022/07/02 11:19:58;;;;;;;1.15;0.50;;;27.10;94.60;;;;;;5091798;28;20036;-55
2022/07/02 11:22:31;;;;;;;1.90;0.55;;;27.50;94.60;;;;;;5091879;28;20452;-55
2022/07/02 11:24:57;;;;;;;1.83;0.40;;;27.80;94.50;;;;;;5091872;28;20046;-56
2022/07/02 11:27:22;;;;;;;0.80;0.30;;;27.20;93.80;;;;;;5091408;28;20461;-56
2022/07/02 11:29:53;;;;;;;3.80;0.55;;;27.00;94.50;;;;;;5091765;28;20068;-56
2022/07/02 11:32:19;;;;;;;2.10;0.65;;;26.50;93.70;;;;;;5091632;28;20115;-55
2022/07/02 11:34:45;;;;;;;1.20;0.43;;;26.20;94.90;;;;;;5091328;28;20132;-56
2022/07/02 11:37:21;;;;;;;1.40;0.30;;;25.90;94.60;;;;;;5091615;28;20482;-56
2022/07/02 11:39:47;;;;;;;0.95;0.40;;;25.80;95.60;;;;;;5091329;28;20435;-57
2022/07/02 11:42:12;;;;;;;1.83;0.50;;;26.60;95.00;;;;;;5091886;28;20040;-57
2022/07/02 11:44:38;;;;;;;1.23;0.50;;;26.20;95.50;;;;;;5091589;28;20024;-55
2022/07/02 11:47:04;;;;;;;3.85;0.75;;;25.90;95.20;;;;;;5091495;28;20071;-56
2022/07/02 11:49:37;;;;;;;2.47;0.30;;;25.70;95.40;;;;;;5091535;28;20036;-57
2022/07/02 11:52:05;;;;;;;1.85;0.57;;;25.30;95.50;;;;;;5093848;28;20120;-55
2022/07/02 11:54:31;;;;;;;;;;;25.50;96.20;;;;;;5095467;28;20118;-55
2022/07/02 11:56:56;;;;;;;2.08;0.40;;;25.40;95.60;;;;;;5095205;28;19920;-55
2022/07/02 11:59:25;;;;;;;1.17;0.40;;;25.10;96.10;;;;;;5095009;28;20127;-56
2022/07/02 12:01:52;;;;;;;3.22;0.60;;;25.30;95.50;;;;;;5094770;28;20083;-55
2022/07/02 12:04:20;;;;;;;4.68;0.68;;;25.50;96.00;;;;;;5095033;28;20111;-55
2022/07/02 12:06:50;;;;;;;2.72;0.63;;;25.50;95.70;;;;;;5094840;28;20386;-55
2022/07/02 12:09:17;;;;;;;1.00;0.45;;;25.40;95.70;;;;;;5094690;28;20508;-55
2022/07/02 12:11:45;;;;;;;1.90;0.40;;;25.20;95.80;;;;;;5095249;28;20044;-56
2022/07/02 12:14:12;;;;;;;2.35;0.55;;;25.10;96.20;;;;;;5094838;28;20833;-56
2022/07/02 12:16:40;;;;;;;2.05;0.50;;;25.10;96.50;;;;;;5094916;28;20469;-55
2022/07/02 12:19:10;;;;;;;1.05;0.40;;;25.20;96.10;;;;;;5094809;28;20103;-56
2022/07/02 12:21:38;;;;;;;5.43;0.63;;;25.30;96.80;;;;;;5094470;28;20583;-55
2022/07/02 12:24:21;;;;;;;2.03;0.63;;;25.30;96.20;;;;;;5094435;28;20047;-54
2022/07/02 12:26:51;;;;;;;0.95;0.38;;;24.90;96.10;;;;;;5094956;28;20612;-56
2022/07/02 12:32:06;;;;;;;2.60;0.80;;;25.10;95.50;;;;;;5094404;28;20482;-55
2022/07/02 12:34:54;;;;;;;3.92;0.82;;;25.20;95.20;;;;;;5094277;28;20064;-56
2022/07/02 12:37:31;;;;;;;2.45;0.40;;;25.10;95.70;;;;;;5094245;28;20042;-55
2022/07/02 12:40:10;;;;;;;2.67;0.52;;;25.30;95.00;;;;;;5093991;28;20479;-55
2022/07/02 12:42:49;;;;;;;1.75;0.32;;;25.20;95.40;;;;;;5094296;28;20374;-57
2022/07/02 12:45:21;;;;;;;1.17;0.43;;;25.20;95.00;;;;;;5094017;28;20028;-56
2022/07/02 12:47:56;;;;;;;1.83;0.55;;;25.20;95.70;;;;;;5093410;28;20836;-57
2022/07/02 12:50:21;;;;;;;2.88;0.57;;;25.50;96.40;;;;;;5094007;28;20039;-56
2022/07/02 12:52:52;;;;;;;9.57;0.80;;;25.30;96.30;;;;;;5093881;28;20042;-55